Terminal Aerodrome Forecast
Issued by NWS Lake Charles, LA

Home | Current Version | Previous Version | Text Only | Print | Product List | Glossary On
Versions: 1 2 3 4 5 6 7 8 9 10 11 12 13 14 15 16 17 18
000
FTUS44 KLCH 060520
TAFLFT
TAF
KLFT 060520Z 0606/0706 25009KT 4SM BR OVC004
      TEMPO 0608/0612 1/2SM FG VV001
     FM061200 VRB03KT 4SM BR OVC003
     FM061500 03007KT P6SM BKN008
     FM061700 12007KT P6SM BKN025=

USA.gov is the U.S. government's official web portal to all federal, state and local government web resources and services.